createdAt,value
2022-12-17T00:02:14.576Z,5.47
2022-12-17T00:05:00.695Z,5.17
2022-12-17T00:07:46.260Z,5.90
2022-12-17T00:10:31.881Z,6.47
2022-12-17T00:13:17.600Z,6.27
2022-12-17T00:16:12.666Z,6.57
2022-12-17T00:19:08.899Z,6.50
2022-12-17T00:21:56.359Z,6.10
2022-12-17T00:24:42.472Z,5.87
2022-12-17T00:27:28.223Z,6.30
2022-12-17T00:30:14.093Z,6.47
2022-12-17T00:32:59.934Z,5.63
2022-12-17T00:35:45.640Z,5.67
2022-12-17T00:38:38.132Z,5.70
2022-12-17T00:41:24.073Z,6.43
2022-12-17T00:44:09.884Z,5.43
2022-12-17T00:46:55.577Z,4.93
2022-12-17T00:49:41.147Z,4.93
2022-12-17T00:52:26.957Z,4.83
2022-12-17T00:55:12.491Z,5.90
2022-12-17T00:57:58.286Z,4.93
2022-12-17T01:00:44.240Z,5.30
2022-12-17T01:03:31.828Z,4.77
2022-12-17T01:06:21.653Z,3.90
2022-12-17T01:09:10.370Z,4.83
2022-12-17T01:11:56.861Z,5.00
2022-12-17T01:14:43.599Z,4.73
2022-12-17T01:17:29.298Z,4.37
2022-12-17T01:20:15.208Z,4.13
2022-12-17T01:23:00.882Z,3.60
2022-12-17T01:25:46.764Z,3.83
2022-12-17T01:28:32.616Z,3.67
2022-12-17T01:31:18.416Z,3.87
2022-12-17T01:34:05.058Z,4.20
2022-12-17T01:36:50.439Z,4.03
2022-12-17T01:39:36.140Z,4.23
2022-12-17T01:42:21.667Z,4.30
2022-12-17T01:45:11.988Z,4.27
2022-12-17T01:48:03.485Z,4.50
2022-12-17T01:50:52.912Z,4.80
2022-12-17T01:53:46.018Z,5.17
2022-12-17T01:56:32.288Z,4.77
2022-12-17T01:59:18.072Z,5.37
2022-12-17T02:02:03.929Z,5.17
2022-12-17T02:04:50.121Z,5.60
2022-12-17T02:07:42.278Z,5.40
2022-12-17T02:10:50.281Z,5.23
2022-12-17T02:13:43.261Z,5.30
2022-12-17T02:16:38.687Z,4.90
2022-12-17T02:19:48.172Z,4.67
2022-12-17T02:22:54.087Z,4.80
2022-12-17T02:26:18.558Z,4.27
2022-12-17T02:29:08.411Z,4.57
2022-12-17T02:31:57.802Z,4.37
2022-12-17T02:34:43.469Z,3.57
2022-12-17T02:37:29.221Z,4.30
2022-12-17T02:40:15.132Z,4.17
2022-12-17T02:43:02.390Z,4.83
2022-12-17T02:45:48.665Z,4.53
2022-12-17T02:48:35.337Z,4.93
2022-12-17T02:51:21.272Z,4.83
2022-12-17T02:54:12.038Z,5.23
2022-12-17T02:56:57.713Z,4.87
2022-12-17T02:59:43.480Z,4.53
2022-12-17T03:02:29.251Z,5.20
2022-12-17T03:05:42.760Z,5.27
2022-12-17T03:08:20.617Z,4.97
2022-12-17T03:11:06.326Z,4.70
2022-12-17T03:13:52.172Z,4.70
2022-12-17T03:16:38.400Z,4.90
2022-12-17T03:19:24.330Z,4.40
2022-12-17T03:22:10.179Z,4.40
2022-12-17T03:25:09.631Z,4.03
2022-12-17T03:27:55.619Z,3.93
2022-12-17T03:30:47.149Z,4.30
2022-12-17T03:33:34.742Z,4.03
2022-12-17T03:36:20.734Z,4.47
2022-12-17T03:39:06.423Z,4.10
2022-12-17T03:41:52.359Z,4.17
2022-12-17T03:44:37.889Z,3.90
2022-12-17T03:47:23.877Z,4.37
2022-12-17T03:50:09.572Z,4.13
2022-12-17T03:52:55.432Z,4.17
2022-12-17T03:55:41.306Z,4.43
2022-12-17T03:58:40.462Z,4.40
2022-12-17T04:01:26.414Z,4.40
2022-12-17T04:04:12.044Z,5.07
2022-12-17T04:06:57.971Z,5.00
2022-12-17T04:09:43.677Z,4.73
2022-12-17T04:12:29.424Z,4.70
2022-12-17T04:15:15.139Z,4.43
2022-12-17T04:18:00.861Z,4.67
2022-12-17T04:20:46.652Z,4.53
2022-12-17T04:23:32.497Z,4.67
2022-12-17T04:26:18.079Z,4.27
2022-12-17T04:29:03.964Z,4.13
2022-12-17T04:31:49.857Z,4.00
2022-12-17T04:34:35.662Z,3.57
2022-12-17T04:37:21.509Z,3.87
2022-12-17T04:40:07.174Z,3.57
2022-12-17T04:42:53.039Z,3.60
2022-12-17T04:45:38.752Z,3.63
2022-12-17T04:48:26.240Z,3.43
2022-12-17T04:51:12.208Z,3.70
2022-12-17T04:53:57.912Z,4.57
2022-12-17T04:56:44.220Z,3.83
2022-12-17T04:59:29.919Z,3.93
2022-12-17T05:02:15.646Z,3.60
2022-12-17T05:05:01.405Z,3.77
2022-12-17T05:07:47.285Z,4.23
2022-12-17T05:10:33.072Z,4.07
2022-12-17T05:13:19.866Z,4.20
2022-12-17T05:16:06.084Z,4.03
2022-12-17T05:18:52.019Z,4.60
2022-12-17T05:21:37.746Z,4.70
2022-12-17T05:24:23.451Z,4.53
2022-12-17T05:27:08.956Z,4.60
2022-12-17T05:29:54.641Z,4.43
2022-12-17T05:32:40.219Z,4.83
2022-12-17T05:35:26.041Z,4.90
2022-12-17T05:38:11.883Z,4.83
2022-12-17T05:40:57.733Z,4.90
2022-12-17T05:43:43.556Z,4.60
2022-12-17T05:46:29.488Z,5.47
2022-12-17T05:49:15.060Z,5.03
2022-12-17T05:52:00.711Z,4.87
2022-12-17T05:54:46.549Z,5.10
2022-12-17T05:57:32.338Z,5.30
2022-12-17T06:00:18.136Z,5.03
2022-12-17T06:03:04.101Z,5.33
2022-12-17T06:05:49.694Z,5.60
2022-12-17T06:08:35.611Z,4.97
2022-12-17T06:11:21.318Z,5.70
2022-12-17T06:14:07.004Z,5.50
2022-12-17T06:16:52.779Z,4.93
2022-12-17T06:19:38.458Z,5.50
2022-12-17T06:22:24.100Z,5.40
2022-12-17T06:25:09.741Z,4.97
2022-12-17T06:27:55.515Z,5.03
2022-12-17T06:30:41.282Z,5.40
2022-12-17T06:33:29.495Z,5.13
2022-12-17T06:36:22.079Z,5.67
2022-12-17T06:39:09.003Z,5.00
2022-12-17T06:42:02.159Z,4.90
2022-12-17T06:44:50.708Z,5.47
2022-12-17T06:47:44.042Z,5.40
2022-12-17T06:50:29.827Z,5.03
2022-12-17T06:53:22.911Z,5.80
2022-12-17T06:56:08.990Z,5.43
2022-12-17T06:58:54.872Z,5.70
2022-12-17T07:01:51.336Z,5.47
2022-12-17T07:04:37.255Z,5.47
2022-12-17T07:07:23.095Z,5.50
2022-12-17T07:10:13.973Z,5.80
2022-12-17T07:12:59.908Z,5.63
2022-12-17T07:15:45.877Z,5.53
2022-12-17T07:18:31.871Z,6.37
2022-12-17T07:21:17.639Z,5.80
2022-12-17T07:24:03.419Z,6.47
2022-12-17T07:26:49.852Z,6.33
2022-12-17T07:29:35.827Z,6.30
2022-12-17T07:32:21.623Z,6.57
2022-12-17T07:35:07.188Z,6.00
2022-12-17T07:37:52.982Z,6.33
2022-12-17T07:40:38.859Z,5.70
2022-12-17T07:43:34.666Z,5.43
2022-12-17T07:46:20.424Z,5.57
2022-12-17T07:49:06.228Z,6.13
2022-12-17T07:51:52.054Z,6.07
2022-12-17T07:54:37.746Z,6.23
2022-12-17T07:57:23.657Z,6.03
2022-12-17T08:00:09.556Z,5.73
2022-12-17T08:02:55.598Z,5.47
2022-12-17T08:05:41.183Z,5.77
2022-12-17T08:08:31.789Z,5.87
2022-12-17T08:11:17.994Z,5.50
2022-12-17T08:14:03.689Z,5.70
2022-12-17T08:16:49.563Z,5.40
2022-12-17T08:19:35.231Z,5.23
2022-12-17T08:22:21.068Z,5.17
2022-12-17T08:25:06.905Z,4.83
2022-12-17T08:27:52.431Z,5.40
2022-12-17T08:30:38.094Z,5.10
2022-12-17T08:33:24.765Z,5.10
2022-12-17T08:36:14.672Z,4.57
2022-12-17T08:39:01.060Z,5.03
2022-12-17T08:41:52.678Z,5.00
2022-12-17T08:44:40.077Z,4.97
2022-12-17T08:47:25.906Z,4.83
2022-12-17T08:50:11.798Z,4.57
2022-12-17T08:52:57.527Z,4.47
2022-12-17T08:55:43.417Z,4.67
2022-12-17T08:58:29.104Z,4.53
2022-12-17T09:01:33.721Z,4.43
2022-12-17T09:04:19.992Z,3.93
2022-12-17T09:07:05.774Z,3.97
2022-12-17T09:09:51.665Z,3.87
2022-12-17T09:12:37.605Z,3.80
2022-12-17T09:15:23.678Z,3.70
2022-12-17T09:18:11.010Z,2.97
2022-12-17T09:21:10.459Z,3.60
2022-12-17T09:23:56.280Z,3.43
2022-12-17T09:26:55.869Z,3.27
2022-12-17T09:29:41.568Z,3.23
2022-12-17T09:32:27.423Z,3.87
2022-12-17T09:35:13.172Z,3.57
2022-12-17T09:37:58.860Z,3.40
2022-12-17T09:40:44.859Z,2.87
2022-12-17T09:43:49.290Z,2.50
2022-12-17T09:46:47.825Z,2.77
2022-12-17T09:49:41.164Z,2.90
2022-12-17T09:52:45.991Z,2.70
2022-12-17T09:55:41.350Z,2.07
2022-12-17T09:58:41.089Z,2.20
2022-12-17T10:01:36.750Z,2.43
2022-12-17T10:04:25.652Z,1.97
2022-12-17T10:07:11.286Z,2.47
2022-12-17T10:09:57.227Z,2.00
2022-12-17T10:12:42.812Z,2.40
2022-12-17T10:15:33.731Z,2.43
2022-12-17T10:18:29.012Z,2.20
2022-12-17T10:21:21.262Z,1.87
2022-12-17T10:24:07.040Z,2.30
2022-12-17T10:26:54.436Z,2.20
2022-12-17T10:29:47.800Z,1.93
2022-12-17T10:32:34.156Z,1.93
2022-12-17T10:35:40.083Z,1.70
2022-12-17T10:38:46.413Z,2.10
2022-12-17T10:41:43.726Z,2.27
2022-12-17T10:44:49.114Z,2.17
2022-12-17T10:47:41.964Z,1.90
2022-12-17T10:50:34.481Z,1.87
2022-12-17T10:53:21.254Z,1.90
2022-12-17T10:56:15.339Z,1.70
2022-12-17T10:59:06.255Z,2.00
2022-12-17T11:01:52.332Z,1.40
2022-12-17T11:04:57.884Z,1.60
2022-12-17T11:07:49.928Z,1.90
2022-12-17T11:10:45.262Z,1.87
2022-12-17T11:13:46.690Z,1.50
2022-12-17T11:16:50.965Z,1.57
2022-12-17T11:20:08.283Z,1.50
2022-12-17T11:22:56.571Z,1.60
2022-12-17T11:25:46.489Z,1.40
2022-12-17T11:28:43.444Z,1.30
2022-12-17T11:31:48.642Z,1.70
2022-12-17T11:35:05.301Z,1.10
2022-12-17T11:38:18.241Z,1.60
2022-12-17T11:41:17.620Z,1.30
2022-12-17T11:44:27.729Z,1.40
2022-12-17T11:47:35.459Z,1.60
2022-12-17T11:50:39.110Z,1.20
2022-12-17T11:53:49.564Z,1.20
2022-12-17T11:56:44.164Z,1.50
2022-12-17T11:59:55.043Z,1.30
2022-12-17T12:03:01.487Z,1.10
2022-12-17T12:06:11.198Z,1.40
2022-12-17T12:09:44.516Z,1.40
2022-12-17T12:13:02.221Z,1.20
2022-12-17T12:16:00.293Z,1.20
2022-12-17T12:18:56.362Z,1.37
2022-12-17T12:22:30.846Z,1.40
2022-12-17T12:25:45.875Z,1.30
2022-12-17T12:29:03.616Z,1.13
2022-12-17T12:31:54.118Z,1.20
2022-12-17T12:34:44.444Z,1.00
2022-12-17T12:37:34.266Z,1.07
2022-12-17T12:40:35.774Z,0.90
2022-12-17T12:43:39.603Z,1.30
2022-12-17T12:46:34.588Z,1.40
2022-12-17T12:49:34.447Z,1.20
2022-12-17T12:52:43.318Z,1.27
2022-12-17T12:55:30.409Z,0.87
2022-12-17T12:58:23.996Z,1.07
2022-12-17T13:01:11.420Z,1.03
2022-12-17T13:03:59.933Z,1.30
2022-12-17T13:06:42.103Z,0.90
2022-12-17T13:09:18.381Z,0.83
2022-12-17T13:12:04.439Z,1.07
2022-12-17T13:14:59.671Z,0.90
2022-12-17T13:17:35.068Z,0.70
2022-12-17T13:20:20.583Z,0.83
2022-12-17T13:23:05.311Z,1.00
2022-12-17T13:25:32.491Z,0.70
2022-12-17T13:27:59.711Z,0.73
2022-12-17T13:30:39.220Z,0.67
2022-12-17T13:33:29.897Z,1.10
2022-12-17T13:36:16.300Z,0.80
2022-12-17T13:38:51.929Z,0.90
2022-12-17T13:41:21.508Z,0.83
2022-12-17T13:43:51.681Z,0.70
2022-12-17T13:46:35.049Z,0.70
2022-12-17T13:49:06.354Z,0.87
2022-12-17T13:51:35.075Z,0.90
2022-12-17T13:54:04.361Z,1.10
2022-12-17T13:56:34.974Z,0.90
2022-12-17T13:59:09.169Z,0.90
2022-12-17T14:01:46.082Z,0.90
2022-12-17T14:04:24.259Z,0.80
2022-12-17T14:06:53.084Z,0.90
2022-12-17T14:09:22.861Z,0.90
2022-12-17T14:12:09.193Z,0.90
2022-12-17T14:14:40.379Z,1.10
2022-12-17T14:17:15.349Z,1.23
2022-12-17T14:19:42.665Z,1.30
2022-12-17T14:22:18.221Z,1.07
2022-12-17T14:24:45.598Z,1.60
2022-12-17T14:27:33.581Z,1.40
2022-12-17T14:30:01.479Z,1.40
2022-12-17T14:32:34.234Z,1.40
2022-12-17T14:35:01.830Z,1.50
2022-12-17T14:37:30.059Z,1.57
2022-12-17T14:40:04.502Z,1.70
2022-12-17T14:42:35.984Z,1.60
2022-12-17T14:45:22.063Z,1.33
2022-12-17T14:47:55.364Z,1.63
2022-12-17T14:50:30.917Z,1.17
2022-12-17T14:53:23.087Z,1.00
2022-12-17T14:55:57.486Z,1.00
2022-12-17T14:58:27.819Z,1.03
2022-12-17T15:01:09.261Z,1.30
2022-12-17T15:03:42.291Z,1.07
2022-12-17T15:06:13.204Z,1.10
2022-12-17T15:08:42.914Z,0.93
2022-12-17T15:11:15.415Z,1.00
2022-12-17T15:13:43.121Z,0.97
2022-12-17T15:16:11.260Z,1.70
2022-12-17T15:18:39.709Z,1.77
2022-12-17T15:21:07.719Z,1.87
2022-12-17T15:23:41.335Z,1.93
2022-12-17T15:26:10.139Z,2.00
2022-12-17T15:28:38.341Z,1.30
2022-12-17T15:31:06.061Z,2.47
2022-12-17T15:33:33.490Z,1.80
2022-12-17T15:36:01.052Z,1.33
2022-12-17T15:38:28.567Z,1.50
2022-12-17T15:40:56.226Z,1.20
2022-12-17T15:43:24.600Z,1.37
2022-12-17T15:45:52.965Z,1.13
2022-12-17T15:48:23.999Z,1.20
2022-12-17T15:50:52.375Z,1.10
2022-12-17T15:53:19.791Z,1.40
2022-12-17T15:55:46.975Z,1.00
2022-12-17T15:58:15.105Z,1.00
2022-12-17T16:00:42.367Z,1.40
2022-12-17T16:03:09.871Z,1.00
2022-12-17T16:05:37.272Z,1.10
2022-12-17T16:08:05.181Z,1.07
2022-12-17T16:10:32.823Z,1.50
2022-12-17T16:13:00.445Z,1.30
2022-12-17T16:15:27.971Z,1.50
2022-12-17T16:17:55.858Z,1.47
2022-12-17T16:20:24.934Z,1.20
2022-12-17T16:22:52.627Z,1.30
2022-12-17T16:25:19.896Z,1.10
2022-12-17T16:27:49.148Z,1.33
2022-12-17T16:30:17.213Z,1.53
2022-12-17T16:32:45.968Z,1.40
2022-12-17T16:35:15.000Z,1.53
2022-12-17T16:37:42.901Z,1.20
2022-12-17T16:40:11.098Z,1.50
2022-12-17T16:42:40.382Z,1.47
2022-12-17T16:45:09.317Z,1.60
2022-12-17T16:47:38.608Z,1.50
2022-12-17T16:50:06.691Z,1.33
2022-12-17T16:52:34.942Z,1.30
2022-12-17T16:55:02.636Z,1.60
2022-12-17T16:57:30.755Z,1.40
2022-12-17T16:59:59.022Z,1.30
2022-12-17T17:02:27.342Z,1.43
2022-12-17T17:04:55.703Z,1.40
2022-12-17T17:07:23.638Z,1.20
2022-12-17T17:09:51.544Z,1.60
2022-12-17T17:12:19.269Z,1.47
2022-12-17T17:14:46.688Z,1.63
2022-12-17T17:17:14.309Z,1.70
2022-12-17T17:19:41.873Z,1.50
2022-12-17T17:22:09.775Z,1.57
2022-12-17T17:24:38.020Z,1.80
2022-12-17T17:27:06.122Z,2.00
2022-12-17T17:29:33.774Z,1.60
2022-12-17T17:32:16.539Z,1.63
2022-12-17T17:34:45.228Z,1.40
2022-12-17T17:37:13.666Z,1.70
2022-12-17T17:39:41.064Z,1.70
2022-12-17T17:42:09.929Z,1.77
2022-12-17T17:44:38.591Z,1.80
2022-12-17T17:47:06.287Z,1.80
2022-12-17T17:49:34.659Z,1.90
2022-12-17T17:52:11.585Z,2.43
2022-12-17T17:54:41.059Z,2.30
2022-12-17T17:57:10.969Z,2.00
2022-12-17T17:59:42.899Z,1.93
2022-12-17T18:02:11.921Z,2.40
2022-12-17T18:04:40.993Z,2.40
2022-12-17T18:07:26.945Z,2.30
2022-12-17T18:09:58.684Z,2.50
2022-12-17T18:12:45.074Z,2.60
2022-12-17T18:15:15.277Z,2.70
2022-12-17T18:17:45.220Z,2.47
2022-12-17T18:20:14.000Z,3.30
2022-12-17T18:22:41.670Z,2.90
2022-12-17T18:25:09.157Z,2.60
2022-12-17T18:27:36.334Z,2.83
2022-12-17T18:30:04.202Z,2.87
2022-12-17T18:32:31.371Z,3.10
2022-12-17T18:34:59.253Z,3.10
2022-12-17T18:37:27.076Z,2.83
2022-12-17T18:39:54.212Z,3.40
2022-12-17T18:42:39.885Z,3.40
2022-12-17T18:45:07.814Z,3.80
2022-12-17T18:47:35.047Z,3.73
2022-12-17T18:50:02.527Z,3.90
2022-12-17T18:52:29.712Z,3.67
2022-12-17T18:54:56.920Z,3.90
2022-12-17T18:57:24.181Z,4.23
2022-12-17T18:59:54.586Z,4.57
2022-12-17T19:02:22.048Z,4.30
2022-12-17T19:04:49.428Z,4.10
2022-12-17T19:07:16.599Z,3.97
2022-12-17T19:09:43.733Z,4.17
2022-12-17T19:12:11.120Z,4.63
2022-12-17T19:14:38.371Z,4.53
2022-12-17T19:17:06.456Z,4.63
2022-12-17T19:19:34.013Z,5.00
2022-12-17T19:22:02.228Z,4.27
2022-12-17T19:24:29.960Z,4.70
2022-12-17T19:26:57.295Z,4.83
2022-12-17T19:29:24.595Z,5.13
2022-12-17T19:31:52.353Z,4.93
2022-12-17T19:34:20.307Z,5.30
2022-12-17T19:36:48.236Z,5.07
2022-12-17T19:39:19.864Z,5.37
2022-12-17T19:41:51.073Z,5.37
2022-12-17T19:44:20.668Z,5.87
2022-12-17T19:46:48.671Z,5.40
2022-12-17T19:49:17.376Z,5.60
2022-12-17T19:51:45.329Z,5.80
2022-12-17T19:54:15.214Z,6.00
2022-12-17T19:56:44.698Z,6.67
2022-12-17T19:59:13.366Z,6.47
2022-12-17T20:01:44.370Z,5.83
2022-12-17T20:04:13.546Z,6.23
2022-12-17T20:06:40.831Z,6.33
2022-12-17T20:09:08.417Z,6.40
2022-12-17T20:11:36.410Z,6.07
2022-12-17T20:14:14.094Z,6.43
2022-12-17T20:16:43.912Z,6.27
2022-12-17T20:19:14.189Z,6.93
2022-12-17T20:21:41.700Z,6.93
2022-12-17T20:24:10.354Z,7.63
2022-12-17T20:26:37.801Z,7.20
2022-12-17T20:29:05.972Z,7.53
2022-12-17T20:31:34.584Z,7.90
2022-12-17T20:34:07.986Z,8.03
2022-12-17T20:36:36.186Z,8.20
2022-12-17T20:39:04.250Z,7.43
2022-12-17T20:41:33.318Z,8.30
2022-12-17T20:44:07.978Z,8.43
2022-12-17T20:46:37.084Z,8.43
2022-12-17T20:49:05.402Z,8.20
2022-12-17T20:51:33.094Z,9.00
2022-12-17T20:54:01.693Z,8.83
2022-12-17T20:56:32.465Z,8.13
2022-12-17T20:59:02.640Z,7.93
2022-12-17T21:01:32.045Z,8.53
2022-12-17T21:04:00.345Z,8.90
2022-12-17T21:06:32.749Z,8.83
2022-12-17T21:09:00.003Z,9.40
2022-12-17T21:11:30.163Z,9.37
2022-12-17T21:13:57.816Z,9.60
2022-12-17T21:16:30.128Z,9.43
2022-12-17T21:18:59.658Z,9.30
2022-12-17T21:21:29.909Z,8.60
2022-12-17T21:23:57.967Z,9.00
2022-12-17T21:26:29.384Z,10.10
2022-12-17T21:29:01.151Z,8.90
2022-12-17T21:31:32.839Z,9.03
2022-12-17T21:34:02.918Z,9.10
2022-12-17T21:36:32.429Z,8.80
2022-12-17T21:39:00.843Z,9.17
2022-12-17T21:41:33.891Z,10.17
2022-12-17T21:44:07.026Z,9.37
2022-12-17T21:46:34.754Z,9.77
2022-12-17T21:49:03.352Z,10.40
2022-12-17T21:51:32.011Z,10.07
2022-12-17T21:54:02.031Z,10.90
2022-12-17T21:56:35.645Z,10.70
2022-12-17T21:59:02.881Z,10.13
2022-12-17T22:01:34.750Z,10.63
2022-12-17T22:04:04.554Z,10.43
2022-12-17T22:06:46.128Z,11.83
2022-12-17T22:09:39.590Z,10.50
2022-12-17T22:12:27.213Z,10.60
2022-12-17T22:14:54.512Z,11.00
2022-12-17T22:17:22.153Z,10.93
2022-12-17T22:19:49.295Z,10.10
2022-12-17T22:22:16.401Z,10.33
2022-12-17T22:24:43.555Z,10.80
2022-12-17T22:27:10.859Z,10.47
2022-12-17T22:29:56.531Z,11.50
2022-12-17T22:32:42.285Z,10.80
2022-12-17T22:36:28.084Z,11.43
2022-12-17T22:41:34.992Z,11.73
2022-12-17T22:44:33.953Z,11.23
2022-12-17T22:44:48.773Z,11.90
2022-12-17T22:46:19.822Z,11.13
2022-12-17T22:48:47.476Z,11.23
2022-12-17T22:51:16.011Z,10.90
2022-12-17T22:54:02.113Z,11.00
2022-12-17T22:56:58.355Z,10.50
2022-12-17T22:59:19.312Z,11.73
2022-12-17T23:01:46.614Z,11.27
2022-12-17T23:04:16.012Z,11.37
2022-12-17T23:06:47.994Z,10.87
2022-12-17T23:09:19.383Z,11.10
2022-12-17T23:11:48.735Z,10.90
2022-12-17T23:14:17.522Z,12.17
2022-12-17T23:16:45.465Z,10.33
2022-12-17T23:19:13.774Z,11.13
2022-12-17T23:21:41.129Z,11.37
2022-12-17T23:24:09.014Z,12.07
2022-12-17T23:26:37.226Z,10.90
2022-12-17T23:29:08.265Z,11.57
2022-12-17T23:31:38.470Z,11.70
2022-12-17T23:34:06.637Z,12.63
2022-12-17T23:36:34.173Z,11.70
2022-12-17T23:39:01.508Z,12.30
2022-12-17T23:41:30.381Z,11.80
2022-12-17T23:43:58.341Z,12.27
2022-12-17T23:46:27.271Z,11.97
2022-12-17T23:48:54.829Z,12.13
2022-12-17T23:51:23.356Z,12.63
2022-12-17T23:53:50.676Z,11.33
2022-12-17T23:56:23.454Z,12.97
2022-12-17T23:58:54.370Z,12.23
